sensor_id;sensor_type;location;lat;lon;timestamp;P1;durP1;ratioP1;P2;durP2;ratioP2
60211;SDS011;46079;48.686;15.598;2023-04-01T00:01:58;2.35;;;0.88;;
60211;SDS011;46079;48.686;15.598;2023-04-01T00:04:23;2.63;;;0.85;;
60211;SDS011;46079;48.686;15.598;2023-04-01T00:06:49;3.45;;;1.00;;
60211;SDS011;46079;48.686;15.598;2023-04-01T00:09:14;3.78;;;1.00;;
60211;SDS011;46079;48.686;15.598;2023-04-01T00:11:40;2.63;;;0.90;;
60211;SDS011;46079;48.686;15.598;2023-04-01T00:14:05;2.90;;;0.93;;
60211;SDS011;46079;48.686;15.598;2023-04-01T00:16:32;2.95;;;0.90;;
60211;SDS011;46079;48.686;15.598;2023-04-01T00:18:57;2.05;;;0.80;;
60211;SDS011;46079;48.686;15.598;2023-04-01T00:21:23;2.20;;;0.90;;
60211;SDS011;46079;48.686;15.598;2023-04-01T00:23:50;2.67;;;0.80;;
60211;SDS011;46079;48.686;15.598;2023-04-01T00:26:16;2.85;;;0.90;;
60211;SDS011;46079;48.686;15.598;2023-04-01T00:28:44;1.80;;;0.80;;
60211;SDS011;46079;48.686;15.598;2023-04-01T00:31:11;1.85;;;0.90;;
60211;SDS011;46079;48.686;15.598;2023-04-01T00:33:37;2.03;;;0.80;;
60211;SDS011;46079;48.686;15.598;2023-04-01T00:36:12;2.03;;;0.73;;
60211;SDS011;46079;48.686;15.598;2023-04-01T00:38:39;2.28;;;0.80;;
60211;SDS011;46079;48.686;15.598;2023-04-01T00:41:06;3.33;;;1.00;;
60211;SDS011;46079;48.686;15.598;2023-04-01T00:43:33;2.30;;;0.80;;
60211;SDS011;46079;48.686;15.598;2023-04-01T00:45:59;2.25;;;1.00;;
60211;SDS011;46079;48.686;15.598;2023-04-01T00:48:32;2.80;;;0.90;;
60211;SDS011;46079;48.686;15.598;2023-04-01T00:51:04;2.53;;;0.70;;
60211;SDS011;46079;48.686;15.598;2023-04-01T00:53:34;1.95;;;0.73;;
60211;SDS011;46079;48.686;15.598;2023-04-01T00:56:04;2.83;;;1.00;;
60211;SDS011;46079;48.686;15.598;2023-04-01T00:58:36;1.50;;;0.77;;
60211;SDS011;46079;48.686;15.598;2023-04-01T01:01:04;2.80;;;0.82;;
60211;SDS011;46079;48.686;15.598;2023-04-01T01:03:31;1.73;;;0.68;;
60211;SDS011;46079;48.686;15.598;2023-04-01T01:06:06;3.17;;;0.90;;
60211;SDS011;46079;48.686;15.598;2023-04-01T01:11:08;2.00;;;0.80;;
60211;SDS011;46079;48.686;15.598;2023-04-01T01:13:44;2.05;;;0.90;;
60211;SDS011;46079;48.686;15.598;2023-04-01T01:16:24;1.85;;;0.77;;
60211;SDS011;46079;48.686;15.598;2023-04-01T01:24:37;2.90;;;0.90;;
60211;SDS011;46079;48.686;15.598;2023-04-01T01:27:16;1.83;;;0.80;;
60211;SDS011;46079;48.686;15.598;2023-04-01T01:29:54;1.52;;;0.70;;
60211;SDS011;46079;48.686;15.598;2023-04-01T01:38:10;2.28;;;0.90;;
60211;SDS011;46079;48.686;15.598;2023-04-01T01:40:40;1.80;;;0.70;;
60211;SDS011;46079;48.686;15.598;2023-04-01T01:43:09;1.92;;;0.60;;
60211;SDS011;46079;48.686;15.598;2023-04-01T01:45:40;2.47;;;0.70;;
60211;SDS011;46079;48.686;15.598;2023-04-01T01:48:11;1.40;;;0.70;;
60211;SDS011;46079;48.686;15.598;2023-04-01T01:50:37;2.45;;;0.80;;
60211;SDS011;46079;48.686;15.598;2023-04-01T01:53:06;1.52;;;0.80;;
60211;SDS011;46079;48.686;15.598;2023-04-01T01:55:36;2.38;;;0.90;;
60211;SDS011;46079;48.686;15.598;2023-04-01T01:58:05;2.97;;;1.00;;
60211;SDS011;46079;48.686;15.598;2023-04-01T02:00:36;2.63;;;0.80;;
60211;SDS011;46079;48.686;15.598;2023-04-01T02:03:03;1.80;;;0.70;;
60211;SDS011;46079;48.686;15.598;2023-04-01T02:05:30;1.10;;;0.70;;
60211;SDS011;46079;48.686;15.598;2023-04-01T02:08:31;1.73;;;0.68;;
60211;SDS011;46079;48.686;15.598;2023-04-01T02:11:06;1.88;;;0.70;;
60211;SDS011;46079;48.686;15.598;2023-04-01T02:13:35;2.40;;;0.80;;
60211;SDS011;46079;48.686;15.598;2023-04-01T02:16:08;3.13;;;0.85;;
60211;SDS011;46079;48.686;15.598;2023-04-01T02:18:38;2.45;;;0.82;;
60211;SDS011;46079;48.686;15.598;2023-04-01T02:21:08;1.95;;;0.80;;
60211;SDS011;46079;48.686;15.598;2023-04-01T02:23:35;2.55;;;0.80;;
60211;SDS011;46079;48.686;15.598;2023-04-01T02:26:02;1.52;;;0.77;;
60211;SDS011;46079;48.686;15.598;2023-04-01T02:28:35;1.23;;;0.68;;
60211;SDS011;46079;48.686;15.598;2023-04-01T02:31:03;2.20;;;0.80;;
60211;SDS011;46079;48.686;15.598;2023-04-01T02:33:29;2.17;;;0.88;;
60211;SDS011;46079;48.686;15.598;2023-04-01T02:35:56;1.88;;;0.80;;
60211;SDS011;46079;48.686;15.598;2023-04-01T02:38:23;1.58;;;0.70;;
60211;SDS011;46079;48.686;15.598;2023-04-01T02:40:50;2.95;;;0.98;;
60211;SDS011;46079;48.686;15.598;2023-04-01T02:43:16;1.42;;;0.70;;
60211;SDS011;46079;48.686;15.598;2023-04-01T02:45:44;2.67;;;0.82;;
60211;SDS011;46079;48.686;15.598;2023-04-01T02:48:09;1.85;;;0.70;;
60211;SDS011;46079;48.686;15.598;2023-04-01T02:50:35;2.92;;;0.80;;
60211;SDS011;46079;48.686;15.598;2023-04-01T02:53:01;1.65;;;0.77;;
60211;SDS011;46079;48.686;15.598;2023-04-01T02:55:28;1.88;;;0.80;;
60211;SDS011;46079;48.686;15.598;2023-04-01T02:57:55;2.95;;;0.90;;
60211;SDS011;46079;48.686;15.598;2023-04-01T03:00:21;2.10;;;0.70;;
60211;SDS011;46079;48.686;15.598;2023-04-01T03:02:46;2.00;;;0.70;;
60211;SDS011;46079;48.686;15.598;2023-04-01T03:05:12;2.22;;;0.70;;
60211;SDS011;46079;48.686;15.598;2023-04-01T03:07:37;1.90;;;0.68;;
60211;SDS011;46079;48.686;15.598;2023-04-01T03:10:03;2.75;;;0.90;;
60211;SDS011;46079;48.686;15.598;2023-04-01T03:12:30;2.35;;;0.80;;
60211;SDS011;46079;48.686;15.598;2023-04-01T03:14:55;1.65;;;0.77;;
60211;SDS011;46079;48.686;15.598;2023-04-01T03:17:21;1.95;;;0.70;;
60211;SDS011;46079;48.686;15.598;2023-04-01T03:19:46;1.67;;;0.80;;
60211;SDS011;46079;48.686;15.598;2023-04-01T03:22:12;1.77;;;0.70;;
60211;SDS011;46079;48.686;15.598;2023-04-01T03:24:37;1.13;;;0.77;;
60211;SDS011;46079;48.686;15.598;2023-04-01T03:27:03;4.38;;;0.80;;
60211;SDS011;46079;48.686;15.598;2023-04-01T03:29:28;2.33;;;0.80;;
60211;SDS011;46079;48.686;15.598;2023-04-01T03:31:54;2.35;;;0.73;;
60211;SDS011;46079;48.686;15.598;2023-04-01T03:34:22;2.15;;;0.68;;
60211;SDS011;46079;48.686;15.598;2023-04-01T03:36:48;1.52;;;0.75;;
60211;SDS011;46079;48.686;15.598;2023-04-01T03:39:14;1.92;;;0.80;;
60211;SDS011;46079;48.686;15.598;2023-04-01T03:41:43;2.40;;;0.70;;
60211;SDS011;46079;48.686;15.598;2023-04-01T03:44:09;2.55;;;0.80;;
60211;SDS011;46079;48.686;15.598;2023-04-01T03:46:35;2.97;;;0.80;;
60211;SDS011;46079;48.686;15.598;2023-04-01T03:49:00;3.72;;;0.77;;
60211;SDS011;46079;48.686;15.598;2023-04-01T03:51:26;2.28;;;0.80;;
60211;SDS011;46079;48.686;15.598;2023-04-01T03:53:51;1.48;;;0.70;;
60211;SDS011;46079;48.686;15.598;2023-04-01T03:56:17;1.65;;;0.70;;
60211;SDS011;46079;48.686;15.598;2023-04-01T03:58:42;2.63;;;0.80;;
60211;SDS011;46079;48.686;15.598;2023-04-01T04:01:18;1.77;;;0.80;;
60211;SDS011;46079;48.686;15.598;2023-04-01T04:03:46;2.05;;;0.70;;
60211;SDS011;46079;48.686;15.598;2023-04-01T04:06:15;2.72;;;0.70;;
60211;SDS011;46079;48.686;15.598;2023-04-01T04:08:42;2.35;;;0.77;;
60211;SDS011;46079;48.686;15.598;2023-04-01T04:11:09;2.25;;;0.80;;
60211;SDS011;46079;48.686;15.598;2023-04-01T04:13:34;2.13;;;0.68;;
60211;SDS011;46079;48.686;15.598;2023-04-01T04:16:01;1.40;;;0.57;;
60211;SDS011;46079;48.686;15.598;2023-04-01T04:18:28;3.83;;;0.70;;
60211;SDS011;46079;48.686;15.598;2023-04-01T04:20:53;1.38;;;0.60;;
60211;SDS011;46079;48.686;15.598;2023-04-01T04:23:19;1.85;;;0.70;;
60211;SDS011;46079;48.686;15.598;2023-04-01T04:25:54;1.83;;;0.68;;
60211;SDS011;46079;48.686;15.598;2023-04-01T04:28:21;1.55;;;0.68;;
60211;SDS011;46079;48.686;15.598;2023-04-01T04:30:47;2.78;;;0.85;;
60211;SDS011;46079;48.686;15.598;2023-04-01T04:33:12;1.65;;;0.60;;
60211;SDS011;46079;48.686;15.598;2023-04-01T04:35:38;1.60;;;0.55;;
60211;SDS011;46079;48.686;15.598;2023-04-01T04:38:03;2.00;;;0.60;;
60211;SDS011;46079;48.686;15.598;2023-04-01T04:40:29;1.58;;;0.70;;
60211;SDS011;46079;48.686;15.598;2023-04-01T04:42:54;2.10;;;0.68;;
60211;SDS011;46079;48.686;15.598;2023-04-01T04:45:20;2.53;;;0.88;;
60211;SDS011;46079;48.686;15.598;2023-04-01T04:47:45;1.25;;;0.70;;
60211;SDS011;46079;48.686;15.598;2023-04-01T04:50:10;2.60;;;0.70;;
60211;SDS011;46079;48.686;15.598;2023-04-01T04:52:36;2.58;;;0.65;;
60211;SDS011;46079;48.686;15.598;2023-04-01T04:55:02;2.47;;;0.80;;
60211;SDS011;46079;48.686;15.598;2023-04-01T04:57:28;1.75;;;0.70;;
60211;SDS011;46079;48.686;15.598;2023-04-01T04:59:53;0.93;;;0.47;;
60211;SDS011;46079;48.686;15.598;2023-04-01T05:02:18;2.40;;;0.80;;
60211;SDS011;46079;48.686;15.598;2023-04-01T05:04:44;2.03;;;0.75;;
60211;SDS011;46079;48.686;15.598;2023-04-01T05:07:10;2.47;;;0.90;;
60211;SDS011;46079;48.686;15.598;2023-04-01T05:09:35;1.83;;;0.70;;
60211;SDS011;46079;48.686;15.598;2023-04-01T05:12:01;2.05;;;0.73;;
60211;SDS011;46079;48.686;15.598;2023-04-01T05:14:26;1.35;;;0.60;;
60211;SDS011;46079;48.686;15.598;2023-04-01T05:16:51;1.38;;;0.50;;
60211;SDS011;46079;48.686;15.598;2023-04-01T05:19:17;2.08;;;0.80;;
60211;SDS011;46079;48.686;15.598;2023-04-01T05:21:43;3.03;;;0.80;;
60211;SDS011;46079;48.686;15.598;2023-04-01T05:24:08;1.73;;;0.75;;
60211;SDS011;46079;48.686;15.598;2023-04-01T05:26:34;2.15;;;0.63;;
60211;SDS011;46079;48.686;15.598;2023-04-01T05:29:00;2.72;;;0.80;;
60211;SDS011;46079;48.686;15.598;2023-04-01T05:31:25;1.88;;;0.70;;
60211;SDS011;46079;48.686;15.598;2023-04-01T05:33:51;1.50;;;0.50;;
60211;SDS011;46079;48.686;15.598;2023-04-01T05:36:16;2.47;;;0.65;;
60211;SDS011;46079;48.686;15.598;2023-04-01T05:38:42;1.45;;;0.60;;
60211;SDS011;46079;48.686;15.598;2023-04-01T05:41:10;2.13;;;0.73;;
60211;SDS011;46079;48.686;15.598;2023-04-01T05:43:36;1.35;;;0.60;;
60211;SDS011;46079;48.686;15.598;2023-04-01T05:46:03;2.83;;;0.75;;
60211;SDS011;46079;48.686;15.598;2023-04-01T05:48:28;2.40;;;0.70;;
60211;SDS011;46079;48.686;15.598;2023-04-01T05:50:53;2.05;;;0.70;;
60211;SDS011;46079;48.686;15.598;2023-04-01T05:53:19;2.15;;;0.70;;
60211;SDS011;46079;48.686;15.598;2023-04-01T05:55:44;2.03;;;0.70;;
60211;SDS011;46079;48.686;15.598;2023-04-01T05:58:10;2.50;;;0.70;;
60211;SDS011;46079;48.686;15.598;2023-04-01T06:00:35;2.40;;;0.77;;
60211;SDS011;46079;48.686;15.598;2023-04-01T06:03:01;1.38;;;0.60;;
60211;SDS011;46079;48.686;15.598;2023-04-01T06:05:28;2.25;;;0.70;;
60211;SDS011;46079;48.686;15.598;2023-04-01T06:07:55;2.25;;;0.80;;
60211;SDS011;46079;48.686;15.598;2023-04-01T06:10:28;2.83;;;0.80;;
60211;SDS011;46079;48.686;15.598;2023-04-01T06:13:06;1.75;;;0.60;;
60211;SDS011;46079;48.686;15.598;2023-04-01T06:15:49;3.85;;;0.80;;
60211;SDS011;46079;48.686;15.598;2023-04-01T06:29:47;1.83;;;0.60;;
60211;SDS011;46079;48.686;15.598;2023-04-01T06:38:17;1.73;;;0.55;;
60211;SDS011;46079;48.686;15.598;2023-04-01T06:40:58;1.83;;;0.55;;
60211;SDS011;46079;48.686;15.598;2023-04-01T06:46:22;2.05;;;0.70;;
60211;SDS011;46079;48.686;15.598;2023-04-01T06:51:27;1.15;;;0.60;;
60211;SDS011;46079;48.686;15.598;2023-04-01T06:54:13;2.00;;;0.70;;
60211;SDS011;46079;48.686;15.598;2023-04-01T06:56:44;1.67;;;0.63;;
60211;SDS011;46079;48.686;15.598;2023-04-01T06:59:17;1.85;;;0.65;;
60211;SDS011;46079;48.686;15.598;2023-04-01T07:01:47;2.55;;;0.75;;
60211;SDS011;46079;48.686;15.598;2023-04-01T07:06:58;0.73;;;0.40;;
60211;SDS011;46079;48.686;15.598;2023-04-01T07:09:37;1.58;;;0.57;;
60211;SDS011;46079;48.686;15.598;2023-04-01T07:12:12;2.40;;;0.60;;
60211;SDS011;46079;48.686;15.598;2023-04-01T07:14:46;2.28;;;0.63;;
60211;SDS011;46079;48.686;15.598;2023-04-01T07:17:16;1.83;;;0.60;;
60211;SDS011;46079;48.686;15.598;2023-04-01T07:19:47;0.93;;;0.50;;
60211;SDS011;46079;48.686;15.598;2023-04-01T07:22:35;1.95;;;0.70;;
60211;SDS011;46079;48.686;15.598;2023-04-01T07:25:11;2.75;;;0.80;;
60211;SDS011;46079;48.686;15.598;2023-04-01T07:27:41;2.03;;;0.60;;
60211;SDS011;46079;48.686;15.598;2023-04-01T07:30:16;1.25;;;0.50;;
60211;SDS011;46079;48.686;15.598;2023-04-01T07:32:55;1.95;;;0.60;;
60211;SDS011;46079;48.686;15.598;2023-04-01T07:39:00;1.50;;;0.60;;
60211;SDS011;46079;48.686;15.598;2023-04-01T07:44:12;1.02;;;0.50;;
60211;SDS011;46079;48.686;15.598;2023-04-01T07:47:09;1.63;;;0.63;;
60211;SDS011;46079;48.686;15.598;2023-04-01T07:55:08;2.22;;;0.57;;
60211;SDS011;46079;48.686;15.598;2023-04-01T08:00:17;2.45;;;0.70;;
60211;SDS011;46079;48.686;15.598;2023-04-01T08:14:33;0.90;;;0.50;;
60211;SDS011;46079;48.686;15.598;2023-04-01T08:20:29;1.73;;;0.45;;
60211;SDS011;46079;48.686;15.598;2023-04-01T08:25:36;1.67;;;0.50;;
60211;SDS011;46079;48.686;15.598;2023-04-01T08:28:23;1.25;;;0.50;;
60211;SDS011;46079;48.686;15.598;2023-04-01T08:31:17;2.45;;;0.70;;
60211;SDS011;46079;48.686;15.598;2023-04-01T08:34:03;1.35;;;0.60;;
60211;SDS011;46079;48.686;15.598;2023-04-01T08:36:37;2.60;;;0.80;;
60211;SDS011;46079;48.686;15.598;2023-04-01T08:40:11;1.98;;;0.60;;
60211;SDS011;46079;48.686;15.598;2023-04-01T08:47:26;1.45;;;0.43;;
60211;SDS011;46079;48.686;15.598;2023-04-01T09:04:52;2.35;;;0.60;;
60211;SDS011;46079;48.686;15.598;2023-04-01T09:35:00;0.73;;;0.40;;
60211;SDS011;46079;48.686;15.598;2023-04-01T09:40:17;2.38;;;0.80;;
60211;SDS011;46079;48.686;15.598;2023-04-01T09:43:01;2.13;;;0.60;;
60211;SDS011;46079;48.686;15.598;2023-04-01T10:17:59;2.75;;;0.80;;
60211;SDS011;46079;48.686;15.598;2023-04-01T10:26:26;2.10;;;0.63;;
60211;SDS011;46079;48.686;15.598;2023-04-01T10:28:59;2.47;;;0.68;;
60211;SDS011;46079;48.686;15.598;2023-04-01T10:56:55;1.35;;;0.43;;
60211;SDS011;46079;48.686;15.598;2023-04-01T10:59:32;1.50;;;0.60;;
60211;SDS011;46079;48.686;15.598;2023-04-01T11:10:25;1.55;;;0.43;;
60211;SDS011;46079;48.686;15.598;2023-04-01T11:19:04;2.05;;;0.60;;
60211;SDS011;46079;48.686;15.598;2023-04-01T11:33:50;1.17;;;0.50;;
60211;SDS011;46079;48.686;15.598;2023-04-01T11:36:29;1.13;;;0.45;;
60211;SDS011;46079;48.686;15.598;2023-04-01T11:39:04;2.80;;;0.68;;
60211;SDS011;46079;48.686;15.598;2023-04-01T11:41:51;1.10;;;0.50;;
60211;SDS011;46079;48.686;15.598;2023-04-01T11:44:42;0.88;;;0.40;;
60211;SDS011;46079;48.686;15.598;2023-04-01T11:47:22;1.83;;;0.50;;
60211;SDS011;46079;48.686;15.598;2023-04-01T11:55:25;0.63;;;0.47;;
60211;SDS011;46079;48.686;15.598;2023-04-01T11:58:40;2.50;;;0.60;;
60211;SDS011;46079;48.686;15.598;2023-04-01T12:08:57;0.80;;;0.43;;
60211;SDS011;46079;48.686;15.598;2023-04-01T12:11:42;1.83;;;0.60;;
60211;SDS011;46079;48.686;15.598;2023-04-01T12:14:19;1.42;;;0.38;;
60211;SDS011;46079;48.686;15.598;2023-04-01T12:16:58;1.30;;;0.50;;
60211;SDS011;46079;48.686;15.598;2023-04-01T12:22:09;1.75;;;0.70;;
60211;SDS011;46079;48.686;15.598;2023-04-01T12:24:45;1.30;;;0.60;;
60211;SDS011;46079;48.686;15.598;2023-04-01T12:29:54;1.30;;;0.50;;
60211;SDS011;46079;48.686;15.598;2023-04-01T12:35:21;1.05;;;0.40;;
60211;SDS011;46079;48.686;15.598;2023-04-01T12:37:58;0.90;;;0.50;;
60211;SDS011;46079;48.686;15.598;2023-04-01T12:40:54;0.95;;;0.50;;
60211;SDS011;46079;48.686;15.598;2023-04-01T12:46:38;1.38;;;0.40;;
60211;SDS011;46079;48.686;15.598;2023-04-01T12:57:45;1.08;;;0.50;;
60211;SDS011;46079;48.686;15.598;2023-04-01T13:14:18;1.48;;;0.60;;
60211;SDS011;46079;48.686;15.598;2023-04-01T13:17:01;0.75;;;0.40;;
60211;SDS011;46079;48.686;15.598;2023-04-01T13:22:14;1.35;;;0.40;;
60211;SDS011;46079;48.686;15.598;2023-04-01T13:24:57;0.77;;;0.40;;
60211;SDS011;46079;48.686;15.598;2023-04-01T13:27:46;1.25;;;0.50;;
60211;SDS011;46079;48.686;15.598;2023-04-01T13:43:14;1.30;;;0.50;;
60211;SDS011;46079;48.686;15.598;2023-04-01T13:59:28;1.20;;;0.40;;
60211;SDS011;46079;48.686;15.598;2023-04-01T14:05:15;0.90;;;0.50;;
60211;SDS011;46079;48.686;15.598;2023-04-01T14:30:27;0.77;;;0.47;;
60211;SDS011;46079;48.686;15.598;2023-04-01T14:33:55;0.28;;;0.28;;
60211;SDS011;46079;48.686;15.598;2023-04-01T14:36:25;1.25;;;0.50;;
60211;SDS011;46079;48.686;15.598;2023-04-01T14:48:21;1.67;;;0.50;;
60211;SDS011;46079;48.686;15.598;2023-04-01T14:51:01;1.00;;;0.40;;
60211;SDS011;46079;48.686;15.598;2023-04-01T14:53:35;1.17;;;0.50;;
60211;SDS011;46079;48.686;15.598;2023-04-01T14:56:04;1.35;;;0.50;;
60211;SDS011;46079;48.686;15.598;2023-04-01T14:58:43;0.95;;;0.50;;
60211;SDS011;46079;48.686;15.598;2023-04-01T15:04:37;0.90;;;0.50;;
60211;SDS011;46079;48.686;15.598;2023-04-01T15:13:13;1.52;;;0.47;;
60211;SDS011;46079;48.686;15.598;2023-04-01T15:16:07;1.48;;;0.47;;
60211;SDS011;46079;48.686;15.598;2023-04-01T15:21:13;0.47;;;0.40;;
60211;SDS011;46079;48.686;15.598;2023-04-01T15:24:35;1.50;;;0.47;;
60211;SDS011;46079;48.686;15.598;2023-04-01T15:32:31;0.65;;;0.40;;
60211;SDS011;46079;48.686;15.598;2023-04-01T15:38:06;0.55;;;0.28;;
60211;SDS011;46079;48.686;15.598;2023-04-01T15:43:30;1.02;;;0.40;;
60211;SDS011;46079;48.686;15.598;2023-04-01T15:49:03;2.00;;;0.55;;
60211;SDS011;46079;48.686;15.598;2023-04-01T16:00:12;0.55;;;0.47;;
60211;SDS011;46079;48.686;15.598;2023-04-01T16:08:51;0.52;;;0.20;;
60211;SDS011;46079;48.686;15.598;2023-04-01T16:14:11;0.68;;;0.30;;
60211;SDS011;46079;48.686;15.598;2023-04-01T16:17:14;0.70;;;0.40;;
60211;SDS011;46079;48.686;15.598;2023-04-01T16:19:56;1.25;;;0.50;;
60211;SDS011;46079;48.686;15.598;2023-04-01T16:30:57;1.25;;;0.50;;
60211;SDS011;46079;48.686;15.598;2023-04-01T16:44:27;0.73;;;0.30;;
60211;SDS011;46079;48.686;15.598;2023-04-01T16:47:11;0.93;;;0.40;;
60211;SDS011;46079;48.686;15.598;2023-04-01T16:49:42;0.90;;;0.40;;
60211;SDS011;46079;48.686;15.598;2023-04-01T16:52:16;0.73;;;0.38;;
60211;SDS011;46079;48.686;15.598;2023-04-01T16:58:09;0.73;;;0.35;;
60211;SDS011;46079;48.686;15.598;2023-04-01T17:00:49;0.80;;;0.40;;
60211;SDS011;46079;48.686;15.598;2023-04-01T17:03:28;1.25;;;0.38;;
60211;SDS011;46079;48.686;15.598;2023-04-01T17:11:24;0.60;;;0.30;;
60211;SDS011;46079;48.686;15.598;2023-04-01T17:22:17;0.30;;;0.20;;
60211;SDS011;46079;48.686;15.598;2023-04-01T17:27:48;1.10;;;0.30;;
60211;SDS011;46079;48.686;15.598;2023-04-01T17:30:28;0.80;;;0.40;;
60211;SDS011;46079;48.686;15.598;2023-04-01T17:33:21;0.57;;;0.38;;
60211;SDS011;46079;48.686;15.598;2023-04-01T17:36:13;1.67;;;0.57;;
60211;SDS011;46079;48.686;15.598;2023-04-01T17:42:09;1.00;;;0.40;;
60211;SDS011;46079;48.686;15.598;2023-04-01T17:58:48;0.20;;;0.20;;
60211;SDS011;46079;48.686;15.598;2023-04-01T18:01:21;0.30;;;0.30;;
60211;SDS011;46079;48.686;15.598;2023-04-01T18:04:14;0.55;;;0.35;;
60211;SDS011;46079;48.686;15.598;2023-04-01T18:17:30;0.82;;;0.40;;
60211;SDS011;46079;48.686;15.598;2023-04-01T18:25:30;0.75;;;0.40;;
60211;SDS011;46079;48.686;15.598;2023-04-01T18:30:51;0.85;;;0.30;;
60211;SDS011;46079;48.686;15.598;2023-04-01T18:33:23;0.80;;;0.35;;
60211;SDS011;46079;48.686;15.598;2023-04-01T18:36:15;1.30;;;0.43;;
60211;SDS011;46079;48.686;15.598;2023-04-01T18:41:35;0.88;;;0.40;;
60211;SDS011;46079;48.686;15.598;2023-04-01T18:44:22;0.70;;;0.32;;
60211;SDS011;46079;48.686;15.598;2023-04-01T18:47:03;1.33;;;0.40;;
60211;SDS011;46079;48.686;15.598;2023-04-01T18:52:37;0.50;;;0.30;;
60211;SDS011;46079;48.686;15.598;2023-04-01T19:00:36;1.65;;;0.47;;
60211;SDS011;46079;48.686;15.598;2023-04-01T19:03:25;1.45;;;0.35;;
60211;SDS011;46079;48.686;15.598;2023-04-01T19:05:56;0.85;;;0.43;;
60211;SDS011;46079;48.686;15.598;2023-04-01T19:08:28;1.93;;;0.50;;
60211;SDS011;46079;48.686;15.598;2023-04-01T19:19:45;1.80;;;0.50;;
60211;SDS011;46079;48.686;15.598;2023-04-01T19:25:03;0.37;;;0.27;;
60211;SDS011;46079;48.686;15.598;2023-04-01T19:27:53;1.55;;;0.45;;
60211;SDS011;46079;48.686;15.598;2023-04-01T19:31:10;1.70;;;0.40;;
60211;SDS011;46079;48.686;15.598;2023-04-01T19:33:25;1.15;;;0.50;;
60211;SDS011;46079;48.686;15.598;2023-04-01T19:36:02;0.60;;;0.30;;
60211;SDS011;46079;48.686;15.598;2023-04-01T19:38:52;1.52;;;0.50;;
60211;SDS011;46079;48.686;15.598;2023-04-01T19:41:40;1.73;;;0.40;;
60211;SDS011;46079;48.686;15.598;2023-04-01T20:00:47;2.08;;;0.70;;
60211;SDS011;46079;48.686;15.598;2023-04-01T20:05:41;0.93;;;0.38;;
60211;SDS011;46079;48.686;15.598;2023-04-01T20:11:08;0.80;;;0.40;;
60211;SDS011;46079;48.686;15.598;2023-04-01T20:13:44;1.45;;;0.47;;
60211;SDS011;46079;48.686;15.598;2023-04-01T20:16:21;1.08;;;0.40;;
60211;SDS011;46079;48.686;15.598;2023-04-01T20:18:52;1.05;;;0.40;;
60211;SDS011;46079;48.686;15.598;2023-04-01T20:21:35;1.17;;;0.45;;
60211;SDS011;46079;48.686;15.598;2023-04-01T20:26:39;1.27;;;0.40;;
60211;SDS011;46079;48.686;15.598;2023-04-01T20:37:35;0.65;;;0.30;;
60211;SDS011;46079;48.686;15.598;2023-04-01T20:40:50;0.90;;;0.30;;
60211;SDS011;46079;48.686;15.598;2023-04-01T20:51:18;1.08;;;0.50;;
60211;SDS011;46079;48.686;15.598;2023-04-01T20:54:03;0.90;;;0.50;;
60211;SDS011;46079;48.686;15.598;2023-04-01T21:18:42;1.10;;;0.45;;
60211;SDS011;46079;48.686;15.598;2023-04-01T21:45:58;1.58;;;0.35;;
60211;SDS011;46079;48.686;15.598;2023-04-01T21:48:37;0.85;;;0.40;;
60211;SDS011;46079;48.686;15.598;2023-04-01T22:02:38;6.78;;;0.77;;
60211;SDS011;46079;48.686;15.598;2023-04-01T22:05:10;1.13;;;0.35;;
60211;SDS011;46079;48.686;15.598;2023-04-01T22:07:44;1.35;;;0.60;;
60211;SDS011;46079;48.686;15.598;2023-04-01T22:10:36;1.38;;;0.50;;
60211;SDS011;46079;48.686;15.598;2023-04-01T22:13:19;1.85;;;0.40;;
60211;SDS011;46079;48.686;15.598;2023-04-01T22:18:49;1.30;;;0.32;;
60211;SDS011;46079;48.686;15.598;2023-04-01T22:21:46;1.38;;;0.45;;
60211;SDS011;46079;48.686;15.598;2023-04-01T22:27:11;0.32;;;0.28;;
60211;SDS011;46079;48.686;15.598;2023-04-01T22:29:46;0.68;;;0.30;;
60211;SDS011;46079;48.686;15.598;2023-04-01T22:32:23;3.10;;;0.50;;
60211;SDS011;46079;48.686;15.598;2023-04-01T22:35:18;1.20;;;0.40;;
60211;SDS011;46079;48.686;15.598;2023-04-01T22:40:23;1.58;;;0.45;;
60211;SDS011;46079;48.686;15.598;2023-04-01T22:56:55;0.55;;;0.40;;
60211;SDS011;46079;48.686;15.598;2023-04-01T22:59:43;2.33;;;0.60;;
60211;SDS011;46079;48.686;15.598;2023-04-01T23:02:21;1.88;;;0.40;;
60211;SDS011;46079;48.686;15.598;2023-04-01T23:04:53;1.60;;;0.38;;
60211;SDS011;46079;48.686;15.598;2023-04-01T23:07:29;0.30;;;0.20;;
60211;SDS011;46079;48.686;15.598;2023-04-01T23:10:02;0.67;;;0.20;;
60211;SDS011;46079;48.686;15.598;2023-04-01T23:12:31;2.20;;;0.32;;
60211;SDS011;46079;48.686;15.598;2023-04-01T23:14:59;1.80;;;0.50;;
60211;SDS011;46079;48.686;15.598;2023-04-01T23:23:12;1.88;;;0.40;;
60211;SDS011;46079;48.686;15.598;2023-04-01T23:28:50;0.55;;;0.40;;
60211;SDS011;46079;48.686;15.598;2023-04-01T23:31:28;0.80;;;0.28;;
60211;SDS011;46079;48.686;15.598;2023-04-01T23:33:56;0.52;;;0.30;;
60211;SDS011;46079;48.686;15.598;2023-04-01T23:36:27;1.35;;;0.22;;
60211;SDS011;46079;48.686;15.598;2023-04-01T23:38:55;1.60;;;0.30;;
60211;SDS011;46079;48.686;15.598;2023-04-01T23:41:27;1.75;;;0.40;;
60211;SDS011;46079;48.686;15.598;2023-04-01T23:44:03;1.40;;;0.50;;
60211;SDS011;46079;48.686;15.598;2023-04-01T23:46:33;1.77;;;0.25;;
60211;SDS011;46079;48.686;15.598;2023-04-01T23:49:00;1.17;;;0.38;;
60211;SDS011;46079;48.686;15.598;2023-04-01T23:51:28;1.90;;;0.50;;
60211;SDS011;46079;48.686;15.598;2023-04-01T23:56:57;1.90;;;0.35;;
